sensor_id;sensor_type;location;lat;lon;timestamp;pressure;altitude;pressure_sealevel;temperature;humidity
15932;BME280;8065;49.520;11.284;2023-07-13T00:01:01;97276.94;;;26.20;57.60
15932;BME280;8065;49.520;11.284;2023-07-13T00:03:29;97272.44;;;26.13;57.79
15932;BME280;8065;49.520;11.284;2023-07-13T00:06:01;97273.97;;;26.14;57.54
15932;BME280;8065;49.520;11.284;2023-07-13T00:08:31;97253.78;;;26.11;57.66
15932;BME280;8065;49.520;11.284;2023-07-13T00:11:01;97256.09;;;26.13;57.90
15932;BME280;8065;49.520;11.284;2023-07-13T00:13:30;97256.94;;;26.10;57.85
15932;BME280;8065;49.520;11.284;2023-07-13T00:16:01;97240.44;;;26.17;57.90
15932;BME280;8065;49.520;11.284;2023-07-13T00:18:29;97231.16;;;26.14;57.41
15932;BME280;8065;49.520;11.284;2023-07-13T00:20:58;97225.78;;;26.11;57.29
15932;BME280;8065;49.520;11.284;2023-07-13T00:23:30;97232.44;;;26.10;57.79
15932;BME280;8065;49.520;11.284;2023-07-13T00:26:00;97229.03;;;26.06;57.42
15932;BME280;8065;49.520;11.284;2023-07-13T00:28:28;97231.41;;;26.04;58.19
15932;BME280;8065;49.520;11.284;2023-07-13T00:30:57;97226.81;;;26.01;57.64
15932;BME280;8065;49.520;11.284;2023-07-13T00:33:28;97236.94;;;26.00;57.55
15932;BME280;8065;49.520;11.284;2023-07-13T00:35:57;97237.13;;;25.93;58.14
15932;BME280;8065;49.520;11.284;2023-07-13T00:38:25;97241.97;;;25.86;57.70
15932;BME280;8065;49.520;11.284;2023-07-13T00:40:54;97244.38;;;25.84;58.20
15932;BME280;8065;49.520;11.284;2023-07-13T00:43:24;97240.03;;;25.86;57.67
15932;BME280;8065;49.520;11.284;2023-07-13T00:46:20;97249.72;;;25.87;57.73
15932;BME280;8065;49.520;11.284;2023-07-13T00:48:53;97253.72;;;25.83;57.91
15932;BME280;8065;49.520;11.284;2023-07-13T00:51:28;97261.03;;;25.69;58.22
15932;BME280;8065;49.520;11.284;2023-07-13T00:53:59;97266.53;;;25.66;58.76
15932;BME280;8065;49.520;11.284;2023-07-13T00:56:28;97269.69;;;25.64;58.23
15932;BME280;8065;49.520;11.284;2023-07-13T00:58:58;97281.81;;;25.60;58.34
15932;BME280;8065;49.520;11.284;2023-07-13T01:01:27;97274.06;;;25.58;58.67
15932;BME280;8065;49.520;11.284;2023-07-13T01:03:58;97266.75;;;25.55;58.43
15932;BME280;8065;49.520;11.284;2023-07-13T01:06:28;97262.41;;;25.58;58.68
15932;BME280;8065;49.520;11.284;2023-07-13T01:08:56;97256.47;;;25.63;58.53
15932;BME280;8065;49.520;11.284;2023-07-13T01:11:26;97258.84;;;25.61;58.97
15932;BME280;8065;49.520;11.284;2023-07-13T01:13:54;97250.25;;;25.62;59.00
15932;BME280;8065;49.520;11.284;2023-07-13T01:16:25;97258.38;;;25.46;59.46
15932;BME280;8065;49.520;11.284;2023-07-13T01:18:58;97255.31;;;25.44;58.69
15932;BME280;8065;49.520;11.284;2023-07-13T01:21:32;97250.56;;;25.48;59.13
15932;BME280;8065;49.520;11.284;2023-07-13T01:24:00;97249.38;;;25.49;58.72
15932;BME280;8065;49.520;11.284;2023-07-13T01:26:29;97246.47;;;25.40;59.83
15932;BME280;8065;49.520;11.284;2023-07-13T01:28:57;97242.56;;;25.41;59.34
15932;BME280;8065;49.520;11.284;2023-07-13T01:31:25;97246.38;;;25.43;59.76
15932;BME280;8065;49.520;11.284;2023-07-13T01:33:54;97248.50;;;25.36;59.60
15932;BME280;8065;49.520;11.284;2023-07-13T01:36:22;97248.66;;;25.29;60.24
15932;BME280;8065;49.520;11.284;2023-07-13T01:38:53;97233.16;;;25.26;59.42
15932;BME280;8065;49.520;11.284;2023-07-13T01:41:21;97238.91;;;25.11;59.24
15932;BME280;8065;49.520;11.284;2023-07-13T01:43:50;97234.47;;;25.01;60.06
15932;BME280;8065;49.520;11.284;2023-07-13T01:46:18;97239.47;;;25.03;59.59
15932;BME280;8065;49.520;11.284;2023-07-13T01:48:46;97241.69;;;24.88;59.74
15932;BME280;8065;49.520;11.284;2023-07-13T01:51:15;97245.59;;;24.87;60.23
15932;BME280;8065;49.520;11.284;2023-07-13T01:53:44;97250.53;;;24.72;60.20
15932;BME280;8065;49.520;11.284;2023-07-13T01:56:15;97248.56;;;24.73;60.74
15932;BME280;8065;49.520;11.284;2023-07-13T01:58:44;97247.38;;;24.74;60.58
15932;BME280;8065;49.520;11.284;2023-07-13T02:01:12;97252.88;;;24.70;59.99
15932;BME280;8065;49.520;11.284;2023-07-13T02:03:41;97253.38;;;24.65;60.73
15932;BME280;8065;49.520;11.284;2023-07-13T02:06:09;97247.50;;;24.67;60.17
15932;BME280;8065;49.520;11.284;2023-07-13T02:08:38;97253.78;;;24.64;60.03
15932;BME280;8065;49.520;11.284;2023-07-13T02:11:06;97258.50;;;24.60;60.30
15932;BME280;8065;49.520;11.284;2023-07-13T02:13:37;97247.06;;;24.48;60.74
15932;BME280;8065;49.520;11.284;2023-07-13T02:16:05;97257.63;;;24.19;62.17
15932;BME280;8065;49.520;11.284;2023-07-13T02:18:33;97254.38;;;24.05;62.73
15932;BME280;8065;49.520;11.284;2023-07-13T02:21:02;97254.84;;;24.00;62.87
15932;BME280;8065;49.520;11.284;2023-07-13T02:23:31;97255.13;;;23.82;63.39
15932;BME280;8065;49.520;11.284;2023-07-13T02:26:01;97260.06;;;23.60;64.25
15932;BME280;8065;49.520;11.284;2023-07-13T02:28:30;97264.44;;;23.50;64.76
15932;BME280;8065;49.520;11.284;2023-07-13T02:31:07;97260.88;;;23.57;64.73
15932;BME280;8065;49.520;11.284;2023-07-13T02:33:36;97262.47;;;23.54;64.47
15932;BME280;8065;49.520;11.284;2023-07-13T02:36:05;97263.09;;;23.66;64.36
15932;BME280;8065;49.520;11.284;2023-07-13T02:38:34;97266.22;;;23.64;64.34
15932;BME280;8065;49.520;11.284;2023-07-13T02:41:03;97268.47;;;23.69;64.43
15932;BME280;8065;49.520;11.284;2023-07-13T02:43:31;97274.00;;;23.62;64.31
15932;BME280;8065;49.520;11.284;2023-07-13T02:46:00;97274.09;;;23.55;65.08
15932;BME280;8065;49.520;11.284;2023-07-13T02:48:35;97265.19;;;23.24;66.07
15932;BME280;8065;49.520;11.284;2023-07-13T02:51:04;97275.63;;;23.26;65.61
15932;BME280;8065;49.520;11.284;2023-07-13T02:53:32;97276.06;;;23.20;65.38
15932;BME280;8065;49.520;11.284;2023-07-13T02:56:01;97273.44;;;23.13;65.29
15932;BME280;8065;49.520;11.284;2023-07-13T02:58:29;97280.84;;;23.09;65.66
15932;BME280;8065;49.520;11.284;2023-07-13T03:00:57;97278.56;;;23.08;65.78
15932;BME280;8065;49.520;11.284;2023-07-13T03:03:26;97284.28;;;23.13;65.22
15932;BME280;8065;49.520;11.284;2023-07-13T03:06:02;97277.06;;;23.03;65.75
15932;BME280;8065;49.520;11.284;2023-07-13T03:08:32;97286.06;;;22.93;66.24
15932;BME280;8065;49.520;11.284;2023-07-13T03:11:02;97289.25;;;22.84;65.83
15932;BME280;8065;49.520;11.284;2023-07-13T03:13:31;97293.47;;;22.89;65.90
15932;BME280;8065;49.520;11.284;2023-07-13T03:16:00;97295.38;;;22.92;65.99
15932;BME280;8065;49.520;11.284;2023-07-13T03:18:28;97306.22;;;22.92;65.79
15932;BME280;8065;49.520;11.284;2023-07-13T03:20:56;97308.00;;;23.06;64.65
15932;BME280;8065;49.520;11.284;2023-07-13T03:23:27;97304.94;;;23.04;64.35
15932;BME280;8065;49.520;11.284;2023-07-13T03:26:03;97318.00;;;23.12;63.68
15932;BME280;8065;49.520;11.284;2023-07-13T03:28:32;97318.00;;;23.12;63.65
15932;BME280;8065;49.520;11.284;2023-07-13T03:31:02;97320.28;;;23.17;63.19
15932;BME280;8065;49.520;11.284;2023-07-13T03:33:31;97329.56;;;23.16;63.29
15932;BME280;8065;49.520;11.284;2023-07-13T03:35:59;97320.28;;;23.17;63.57
15932;BME280;8065;49.520;11.284;2023-07-13T03:38:31;97326.53;;;23.11;63.56
15932;BME280;8065;49.520;11.284;2023-07-13T03:40:59;97324.19;;;23.13;63.86
15932;BME280;8065;49.520;11.284;2023-07-13T03:43:27;97333.16;;;23.06;63.85
15932;BME280;8065;49.520;11.284;2023-07-13T03:45:56;97346.34;;;23.04;64.17
15932;BME280;8065;49.520;11.284;2023-07-13T03:48:24;97337.47;;;23.04;63.93
15932;BME280;8065;49.520;11.284;2023-07-13T03:50:52;97337.47;;;23.04;64.12
15932;BME280;8065;49.520;11.284;2023-07-13T03:53:20;97341.34;;;23.03;63.30
15932;BME280;8065;49.520;11.284;2023-07-13T03:55:51;97332.94;;;22.90;64.79
15932;BME280;8065;49.520;11.284;2023-07-13T03:58:28;97349.56;;;22.92;64.58
15932;BME280;8065;49.520;11.284;2023-07-13T04:00:56;97349.22;;;22.90;64.53
15932;BME280;8065;49.520;11.284;2023-07-13T04:03:25;97354.09;;;22.57;65.54
15932;BME280;8065;49.520;11.284;2023-07-13T04:05:54;97353.44;;;22.46;66.24
15932;BME280;8065;49.520;11.284;2023-07-13T04:08:26;97364.16;;;22.61;65.43
15932;BME280;8065;49.520;11.284;2023-07-13T04:10:58;97370.03;;;22.52;66.37
15932;BME280;8065;49.520;11.284;2023-07-13T04:13:26;97371.94;;;22.55;65.32
15932;BME280;8065;49.520;11.284;2023-07-13T04:15:55;97377.44;;;22.44;64.80
15932;BME280;8065;49.520;11.284;2023-07-13T04:18:23;97382.75;;;22.58;64.29
15932;BME280;8065;49.520;11.284;2023-07-13T04:20:52;97384.28;;;22.60;64.57
15932;BME280;8065;49.520;11.284;2023-07-13T04:23:20;97380.34;;;22.68;64.26
15932;BME280;8065;49.520;11.284;2023-07-13T04:25:51;97383.41;;;22.70;64.40
15932;BME280;8065;49.520;11.284;2023-07-13T04:28:23;97378.50;;;22.57;66.92
15932;BME280;8065;49.520;11.284;2023-07-13T04:30:52;97378.50;;;22.57;67.52
15932;BME280;8065;49.520;11.284;2023-07-13T04:33:21;97375.19;;;22.36;68.09
15932;BME280;8065;49.520;11.284;2023-07-13T04:35:50;97380.59;;;22.36;68.57
15932;BME280;8065;49.520;11.284;2023-07-13T04:38:22;97374.41;;;22.35;68.36
15932;BME280;8065;49.520;11.284;2023-07-13T04:40:51;97381.44;;;22.26;68.95
15932;BME280;8065;49.520;11.284;2023-07-13T04:43:22;97378.00;;;22.18;69.58
15932;BME280;8065;49.520;11.284;2023-07-13T04:45:50;97393.88;;;22.19;68.72
15932;BME280;8065;49.520;11.284;2023-07-13T04:48:19;97390.34;;;22.26;68.61
15932;BME280;8065;49.520;11.284;2023-07-13T04:50:54;97392.25;;;22.29;66.71
15932;BME280;8065;49.520;11.284;2023-07-13T04:53:23;97394.16;;;22.36;66.14
15932;BME280;8065;49.520;11.284;2023-07-13T04:55:52;97388.75;;;22.32;66.69
15932;BME280;8065;49.520;11.284;2023-07-13T04:58:24;97397.59;;;22.43;66.20
15932;BME280;8065;49.520;11.284;2023-07-13T05:00:53;97401.31;;;22.56;64.75
15932;BME280;8065;49.520;11.284;2023-07-13T05:03:21;97405.16;;;22.63;64.06
15932;BME280;8065;49.520;11.284;2023-07-13T05:05:57;97410.88;;;22.72;64.20
15932;BME280;8065;49.520;11.284;2023-07-13T05:08:25;97403.50;;;22.76;63.44
15932;BME280;8065;49.520;11.284;2023-07-13T05:10:54;97410.50;;;22.70;63.82
15932;BME280;8065;49.520;11.284;2023-07-13T05:13:24;97411.25;;;22.74;63.37
15932;BME280;8065;49.520;11.284;2023-07-13T05:15:56;97413.56;;;22.79;63.96
15932;BME280;8065;49.520;11.284;2023-07-13T05:18:25;97411.56;;;22.86;63.80
15932;BME280;8065;49.520;11.284;2023-07-13T05:20:57;97413.50;;;22.86;63.55
15932;BME280;8065;49.520;11.284;2023-07-13T05:23:26;97408.84;;;22.90;63.13
15932;BME280;8065;49.520;11.284;2023-07-13T05:25:54;97404.16;;;22.94;62.87
15932;BME280;8065;49.520;11.284;2023-07-13T05:28:25;97406.81;;;23.01;62.39
15932;BME280;8065;49.520;11.284;2023-07-13T05:30:54;97415.63;;;23.09;62.39
15932;BME280;8065;49.520;11.284;2023-07-13T05:33:23;97421.13;;;23.02;62.55
15932;BME280;8065;49.520;11.284;2023-07-13T05:35:51;97419.19;;;23.02;62.24
15932;BME280;8065;49.520;11.284;2023-07-13T05:38:20;97430.38;;;23.08;62.24
15932;BME280;8065;49.520;11.284;2023-07-13T05:40:49;97428.00;;;23.13;61.74
15932;BME280;8065;49.520;11.284;2023-07-13T05:43:18;97422.47;;;23.24;62.03
15932;BME280;8065;49.520;11.284;2023-07-13T05:45:49;97434.41;;;23.30;62.19
15932;BME280;8065;49.520;11.284;2023-07-13T05:48:19;97427.03;;;23.34;62.05
15932;BME280;8065;49.520;11.284;2023-07-13T05:50:47;97417.66;;;23.39;61.41
15932;BME280;8065;49.520;11.284;2023-07-13T05:53:15;97430.06;;;23.40;61.69
15932;BME280;8065;49.520;11.284;2023-07-13T05:55:45;97419.84;;;23.51;61.29
15932;BME280;8065;49.520;11.284;2023-07-13T05:58:16;97430.66;;;23.58;61.01
15932;BME280;8065;49.520;11.284;2023-07-13T06:00:45;97431.44;;;23.55;60.62
15932;BME280;8065;49.520;11.284;2023-07-13T06:03:16;97432.84;;;23.70;59.84
15932;BME280;8065;49.520;11.284;2023-07-13T06:05:44;97427.78;;;23.72;59.94
15932;BME280;8065;49.520;11.284;2023-07-13T06:08:12;97431.63;;;23.75;59.88
15932;BME280;8065;49.520;11.284;2023-07-13T06:10:41;97437.38;;;23.80;59.32
15932;BME280;8065;49.520;11.284;2023-07-13T06:13:09;97434.56;;;23.88;59.58
15932;BME280;8065;49.520;11.284;2023-07-13T06:15:37;97439.56;;;23.93;59.43
15932;BME280;8065;49.520;11.284;2023-07-13T06:18:05;97439.47;;;24.00;60.33
15932;BME280;8065;49.520;11.284;2023-07-13T06:20:36;97446.34;;;24.08;60.52
15932;BME280;8065;49.520;11.284;2023-07-13T06:23:04;97446.44;;;24.01;57.93
15932;BME280;8065;49.520;11.284;2023-07-13T06:25:33;97451.00;;;24.07;57.95
15932;BME280;8065;49.520;11.284;2023-07-13T06:28:01;97453.63;;;24.14;58.47
15932;BME280;8065;49.520;11.284;2023-07-13T06:30:30;97450.50;;;24.16;57.81
15932;BME280;8065;49.520;11.284;2023-07-13T06:32:58;97451.63;;;24.18;58.83
15932;BME280;8065;49.520;11.284;2023-07-13T06:35:26;97452.78;;;24.21;57.60
15932;BME280;8065;49.520;11.284;2023-07-13T06:37:57;97456.31;;;24.18;57.95
15932;BME280;8065;49.520;11.284;2023-07-13T06:40:26;97461.59;;;24.29;58.50
15932;BME280;8065;49.520;11.284;2023-07-13T06:42:55;97451.00;;;24.38;57.71
15932;BME280;8065;49.520;11.284;2023-07-13T06:45:24;97451.25;;;24.47;57.88
15932;BME280;8065;49.520;11.284;2023-07-13T06:47:52;97458.06;;;24.59;57.99
15932;BME280;8065;49.520;11.284;2023-07-13T06:50:20;97462.44;;;24.79;56.99
15932;BME280;8065;49.520;11.284;2023-07-13T06:52:49;97457.53;;;24.94;57.13
15932;BME280;8065;49.520;11.284;2023-07-13T06:55:20;97464.50;;;24.95;55.86
15932;BME280;8065;49.520;11.284;2023-07-13T06:57:48;97462.88;;;25.01;55.67
15932;BME280;8065;49.520;11.284;2023-07-13T07:00:17;97476.06;;;25.03;55.68
15932;BME280;8065;49.520;11.284;2023-07-13T07:02:46;97483.16;;;24.97;55.45
15932;BME280;8065;49.520;11.284;2023-07-13T07:05:14;97478.44;;;25.01;55.61
15932;BME280;8065;49.520;11.284;2023-07-13T07:07:43;97482.34;;;25.00;55.63
15932;BME280;8065;49.520;11.284;2023-07-13T07:10:11;97479.28;;;24.94;55.92
15932;BME280;8065;49.520;11.284;2023-07-13T07:12:42;97487.09;;;24.92;55.41
15932;BME280;8065;49.520;11.284;2023-07-13T07:15:10;97489.41;;;24.94;55.19
15932;BME280;8065;49.520;11.284;2023-07-13T07:17:39;97490.69;;;25.12;54.95
15932;BME280;8065;49.520;11.284;2023-07-13T07:20:08;97496.22;;;25.05;55.45
15932;BME280;8065;49.520;11.284;2023-07-13T07:22:37;97495.22;;;25.19;54.77
15932;BME280;8065;49.520;11.284;2023-07-13T07:25:06;97496.56;;;25.31;55.04
15932;BME280;8065;49.520;11.284;2023-07-13T07:27:34;97497.63;;;25.37;53.86
15932;BME280;8065;49.520;11.284;2023-07-13T07:30:07;97488.63;;;25.40;54.17
15932;BME280;8065;49.520;11.284;2023-07-13T07:32:35;97494.72;;;25.47;54.46
15932;BME280;8065;49.520;11.284;2023-07-13T07:35:04;97497.38;;;25.51;54.50
15932;BME280;8065;49.520;11.284;2023-07-13T07:37:32;97505.34;;;25.65;54.50
15932;BME280;8065;49.520;11.284;2023-07-13T07:40:01;97503.66;;;25.71;54.73
15932;BME280;8065;49.520;11.284;2023-07-13T07:42:29;97501.09;;;25.84;54.40
15932;BME280;8065;49.520;11.284;2023-07-13T07:44:58;97505.28;;;25.89;53.50
15932;BME280;8065;49.520;11.284;2023-07-13T07:47:29;97501.59;;;25.99;52.75
15932;BME280;8065;49.520;11.284;2023-07-13T07:49:57;97509.41;;;25.97;52.52
15932;BME280;8065;49.520;11.284;2023-07-13T07:52:25;97519.38;;;26.03;52.38
15932;BME280;8065;49.520;11.284;2023-07-13T07:54:54;97516.94;;;26.09;51.97
15932;BME280;8065;49.520;11.284;2023-07-13T07:57:22;97512.38;;;26.02;52.22
15932;BME280;8065;49.520;11.284;2023-07-13T07:59:50;97513.25;;;25.99;51.88
15932;BME280;8065;49.520;11.284;2023-07-13T08:02:18;97514.75;;;26.00;52.18
15932;BME280;8065;49.520;11.284;2023-07-13T08:04:49;97525.25;;;26.02;52.32
15932;BME280;8065;49.520;11.284;2023-07-13T08:07:17;97526.94;;;25.96;51.84
15932;BME280;8065;49.520;11.284;2023-07-13T08:09:46;97526.63;;;26.10;52.43
15932;BME280;8065;49.520;11.284;2023-07-13T08:12:17;97531.03;;;26.04;51.36
15932;BME280;8065;49.520;11.284;2023-07-13T08:14:45;97526.63;;;26.10;51.42
15932;BME280;8065;49.520;11.284;2023-07-13T08:17:18;97522.66;;;26.14;51.50
15932;BME280;8065;49.520;11.284;2023-07-13T08:19:49;97526.00;;;26.22;51.87
15932;BME280;8065;49.520;11.284;2023-07-13T08:22:18;97527.78;;;26.32;50.93
15932;BME280;8065;49.520;11.284;2023-07-13T08:24:46;97527.06;;;26.28;49.28
15932;BME280;8065;49.520;11.284;2023-07-13T08:27:21;97528.41;;;26.40;49.39
15932;BME280;8065;49.520;11.284;2023-07-13T08:29:50;97519.44;;;26.39;48.78
15932;BME280;8065;49.520;11.284;2023-07-13T08:32:19;97528.16;;;26.51;46.93
15932;BME280;8065;49.520;11.284;2023-07-13T08:34:50;97526.28;;;26.48;47.68
15932;BME280;8065;49.520;11.284;2023-07-13T08:37:19;97523.41;;;26.55;47.84
15932;BME280;8065;49.520;11.284;2023-07-13T08:39:47;97530.06;;;26.54;48.14
15932;BME280;8065;49.520;11.284;2023-07-13T08:42:27;97530.25;;;26.63;47.43
15932;BME280;8065;49.520;11.284;2023-07-13T08:45:08;97523.97;;;26.82;47.94
15932;BME280;8065;49.520;11.284;2023-07-13T08:47:44;97521.59;;;26.84;44.63
15932;BME280;8065;49.520;11.284;2023-07-13T08:50:17;97516.22;;;26.81;42.02
15932;BME280;8065;49.520;11.284;2023-07-13T08:52:47;97535.50;;;27.06;42.88
15932;BME280;8065;49.520;11.284;2023-07-13T08:55:18;97530.22;;;27.15;43.30
15932;BME280;8065;49.520;11.284;2023-07-13T08:57:53;97533.03;;;27.28;43.55
15932;BME280;8065;49.520;11.284;2023-07-13T09:00:25;97545.16;;;27.43;43.08
15932;BME280;8065;49.520;11.284;2023-07-13T09:03:02;97540.97;;;27.55;42.44
15932;BME280;8065;49.520;11.284;2023-07-13T09:05:36;97544.81;;;27.57;41.64
15932;BME280;8065;49.520;11.284;2023-07-13T09:08:23;97548.56;;;27.63;42.11
15932;BME280;8065;49.520;11.284;2023-07-13T09:11:01;97541.84;;;27.81;41.60
15932;BME280;8065;49.520;11.284;2023-07-13T09:13:43;97557.38;;;27.84;42.38
15932;BME280;8065;49.520;11.284;2023-07-13T09:16:16;97547.84;;;27.75;41.86
15932;BME280;8065;49.520;11.284;2023-07-13T09:18:48;97551.75;;;27.91;41.99
15932;BME280;8065;49.520;11.284;2023-07-13T09:21:23;97554.31;;;28.11;42.50
15932;BME280;8065;49.520;11.284;2023-07-13T09:23:53;97546.41;;;28.00;39.52
15932;BME280;8065;49.520;11.284;2023-07-13T09:26:24;97549.97;;;28.13;40.17
15932;BME280;8065;49.520;11.284;2023-07-13T09:28:57;97545.69;;;28.12;39.48
15932;BME280;8065;49.520;11.284;2023-07-13T09:31:33;97559.03;;;28.10;40.10
15932;BME280;8065;49.520;11.284;2023-07-13T09:34:06;97550.69;;;28.01;39.38
15932;BME280;8065;49.520;11.284;2023-07-13T09:36:39;97558.69;;;28.08;39.34
15932;BME280;8065;49.520;11.284;2023-07-13T09:39:14;97553.69;;;28.19;39.40
15932;BME280;8065;49.520;11.284;2023-07-13T09:41:48;97547.31;;;28.38;39.73
15932;BME280;8065;49.520;11.284;2023-07-13T09:44:27;97559.38;;;28.54;39.36
15932;BME280;8065;49.520;11.284;2023-07-13T09:46:56;97552.06;;;28.63;39.04
15932;BME280;8065;49.520;11.284;2023-07-13T09:49:25;97547.56;;;28.69;39.37
15932;BME280;8065;49.520;11.284;2023-07-13T09:52:04;97553.69;;;28.61;39.10
15932;BME280;8065;49.520;11.284;2023-07-13T09:54:35;97539.72;;;28.84;39.05
15932;BME280;8065;49.520;11.284;2023-07-13T09:57:12;97551.13;;;28.95;39.50
15932;BME280;8065;49.520;11.284;2023-07-13T09:59:43;97536.66;;;29.08;39.37
15932;BME280;8065;49.520;11.284;2023-07-13T10:02:28;97537.09;;;29.19;38.38
15932;BME280;8065;49.520;11.284;2023-07-13T10:05:03;97545.06;;;29.39;38.85
15932;BME280;8065;49.520;11.284;2023-07-13T10:07:39;97549.13;;;29.34;39.24
15932;BME280;8065;49.520;11.284;2023-07-13T10:10:14;97548.88;;;29.41;38.14
15932;BME280;8065;49.520;11.284;2023-07-13T10:12:46;97550.66;;;29.35;37.80
15932;BME280;8065;49.520;11.284;2023-07-13T10:15:17;97539.88;;;29.53;38.97
15932;BME280;8065;49.520;11.284;2023-07-13T10:17:46;97548.09;;;29.53;38.06
15932;BME280;8065;49.520;11.284;2023-07-13T10:20:16;97555.03;;;29.20;36.24
15932;BME280;8065;49.520;11.284;2023-07-13T10:22:52;97551.88;;;29.21;36.92
15932;BME280;8065;49.520;11.284;2023-07-13T10:25:25;97561.59;;;29.35;37.45
15932;BME280;8065;49.520;11.284;2023-07-13T10:27:58;97558.31;;;29.40;37.16
15932;BME280;8065;49.520;11.284;2023-07-13T10:30:32;97550.25;;;29.58;38.33
15932;BME280;8065;49.520;11.284;2023-07-13T10:33:04;97554.09;;;29.61;37.45
15932;BME280;8065;49.520;11.284;2023-07-13T10:35:34;97557.19;;;29.50;37.51
15932;BME280;8065;49.520;11.284;2023-07-13T10:38:07;97564.84;;;29.55;37.44
15932;BME280;8065;49.520;11.284;2023-07-13T10:40:39;97551.00;;;29.72;37.53
15932;BME280;8065;49.520;11.284;2023-07-13T10:43:13;97559.94;;;29.85;37.53
15932;BME280;8065;49.520;11.284;2023-07-13T10:45:45;97559.06;;;29.88;37.76
15932;BME280;8065;49.520;11.284;2023-07-13T10:48:15;97558.97;;;29.79;36.74
15932;BME280;8065;49.520;11.284;2023-07-13T10:50:46;97557.19;;;29.50;37.02
15932;BME280;8065;49.520;11.284;2023-07-13T10:53:27;97556.16;;;29.69;37.72
15932;BME280;8065;49.520;11.284;2023-07-13T10:55:59;97558.25;;;29.65;37.75
15932;BME280;8065;49.520;11.284;2023-07-13T10:58:33;97565.34;;;29.76;38.26
15932;BME280;8065;49.520;11.284;2023-07-13T11:01:07;97561.63;;;29.69;37.45
15932;BME280;8065;49.520;11.284;2023-07-13T11:03:38;97565.50;;;29.59;38.79
15932;BME280;8065;49.520;11.284;2023-07-13T11:06:17;97566.00;;;29.45;37.15
15932;BME280;8065;49.520;11.284;2023-07-13T11:09:18;97555.31;;;29.60;37.75
15932;BME280;8065;49.520;11.284;2023-07-13T11:11:47;97562.63;;;29.63;37.72
15932;BME280;8065;49.520;11.284;2023-07-13T11:14:35;97564.47;;;29.44;37.89
15932;BME280;8065;49.520;11.284;2023-07-13T11:17:29;97562.16;;;29.43;37.76
15932;BME280;8065;49.520;11.284;2023-07-13T11:20:22;97554.13;;;29.48;37.54
15932;BME280;8065;49.520;11.284;2023-07-13T11:22:52;97557.75;;;29.80;37.43
15932;BME280;8065;49.520;11.284;2023-07-13T11:25:37;97556.72;;;29.99;38.46
15932;BME280;8065;49.520;11.284;2023-07-13T11:28:17;97551.00;;;30.06;37.45
15932;BME280;8065;49.520;11.284;2023-07-13T11:30:59;97549.53;;;30.14;36.78
15932;BME280;8065;49.520;11.284;2023-07-13T11:33:43;97547.75;;;30.20;36.79
15932;BME280;8065;49.520;11.284;2023-07-13T11:36:15;97536.75;;;29.98;36.48
15932;BME280;8065;49.520;11.284;2023-07-13T11:38:55;97546.03;;;29.79;36.94
15932;BME280;8065;49.520;11.284;2023-07-13T11:41:30;97543.94;;;29.83;37.76
15932;BME280;8065;49.520;11.284;2023-07-13T11:44:13;97549.50;;;29.92;37.03
15932;BME280;8065;49.520;11.284;2023-07-13T11:46:46;97546.81;;;29.80;37.16
15932;BME280;8065;49.520;11.284;2023-07-13T11:49:17;97548.94;;;29.63;37.43
15932;BME280;8065;49.520;11.284;2023-07-13T11:51:46;97551.97;;;29.43;37.77
15932;BME280;8065;49.520;11.284;2023-07-13T11:54:24;97543.50;;;29.50;37.89
15932;BME280;8065;49.520;11.284;2023-07-13T11:56:57;97548.97;;;29.85;38.13
15932;BME280;8065;49.520;11.284;2023-07-13T11:59:27;97551.44;;;30.05;38.98
15932;BME280;8065;49.520;11.284;2023-07-13T12:01:58;97549.59;;;30.23;38.27
15932;BME280;8065;49.520;11.284;2023-07-13T12:04:30;97550.75;;;30.13;38.14
15932;BME280;8065;49.520;11.284;2023-07-13T12:07:05;97551.16;;;29.90;36.76
15932;BME280;8065;49.520;11.284;2023-07-13T12:09:34;97561.47;;;29.86;37.64
15932;BME280;8065;49.520;11.284;2023-07-13T12:12:11;97543.56;;;29.94;38.22
15932;BME280;8065;49.520;11.284;2023-07-13T12:14:40;97551.13;;;30.03;38.15
15932;BME280;8065;49.520;11.284;2023-07-13T12:17:13;97541.97;;;29.84;37.51
15932;BME280;8065;49.520;11.284;2023-07-13T12:19:42;97543.66;;;30.03;37.52
15932;BME280;8065;49.520;11.284;2023-07-13T12:22:12;97543.00;;;29.99;38.23
15932;BME280;8065;49.520;11.284;2023-07-13T12:24:43;97543.16;;;30.17;37.46
15932;BME280;8065;49.520;11.284;2023-07-13T12:27:21;97552.34;;;30.02;37.81
15932;BME280;8065;49.520;11.284;2023-07-13T12:29:51;97547.44;;;30.18;37.72
15932;BME280;8065;49.520;11.284;2023-07-13T12:32:21;97549.28;;;30.21;37.91
15932;BME280;8065;49.520;11.284;2023-07-13T12:34:52;97548.59;;;30.08;37.09
15932;BME280;8065;49.520;11.284;2023-07-13T12:37:22;97545.28;;;30.13;37.68
15932;BME280;8065;49.520;11.284;2023-07-13T12:39:51;97546.72;;;30.05;37.66
15932;BME280;8065;49.520;11.284;2023-07-13T12:42:24;97535.31;;;30.28;38.41
15932;BME280;8065;49.520;11.284;2023-07-13T12:44:54;97532.91;;;30.40;38.13
15932;BME280;8065;49.520;11.284;2023-07-13T12:47:25;97539.66;;;30.48;37.62
15932;BME280;8065;49.520;11.284;2023-07-13T12:49:55;97533.22;;;30.32;37.17
15932;BME280;8065;49.520;11.284;2023-07-13T12:52:29;97544.56;;;30.53;37.07
15932;BME280;8065;49.520;11.284;2023-07-13T12:55:04;97538.91;;;30.69;37.43
15932;BME280;8065;49.520;11.284;2023-07-13T12:57:43;97544.84;;;30.68;37.18
15932;BME280;8065;49.520;11.284;2023-07-13T13:00:23;97535.53;;;30.65;37.71
15932;BME280;8065;49.520;11.284;2023-07-13T13:02:53;97539.41;;;30.55;36.87
15932;BME280;8065;49.520;11.284;2023-07-13T13:05:22;97542.22;;;30.64;36.96
15932;BME280;8065;49.520;11.284;2023-07-13T13:07:52;97546.81;;;30.67;37.36
15932;BME280;8065;49.520;11.284;2023-07-13T13:10:20;97537.09;;;30.75;37.70
15932;BME280;8065;49.520;11.284;2023-07-13T13:12:52;97531.13;;;30.46;37.74
15932;BME280;8065;49.520;11.284;2023-07-13T13:15:20;97527.56;;;30.36;38.11
15932;BME280;8065;49.520;11.284;2023-07-13T13:17:49;97529.28;;;30.43;37.47
15932;BME280;8065;49.520;11.284;2023-07-13T13:20:20;97534.50;;;30.50;37.39